sensor_id;sensor_type;location;lat;lon;timestamp;P1;durP1;ratioP1;P2;durP2;ratioP2
61104;SDS011;46987;32.638;-115.438;2024-01-30T00:00:10;7.30;;;1.80;;
61104;SDS011;46987;32.638;-115.438;2024-01-30T00:02:38;3.95;;;0.80;;
61104;SDS011;46987;32.638;-115.438;2024-01-30T00:05:04;5.65;;;1.00;;
61104;SDS011;46987;32.638;-115.438;2024-01-30T00:07:33;6.65;;;0.90;;
61104;SDS011;46987;32.638;-115.438;2024-01-30T00:10:00;2.53;;;0.80;;
61104;SDS011;46987;32.638;-115.438;2024-01-30T00:12:27;3.40;;;0.70;;
61104;SDS011;46987;32.638;-115.438;2024-01-30T00:14:54;5.85;;;0.90;;
61104;SDS011;46987;32.638;-115.438;2024-01-30T00:17:21;6.80;;;1.40;;
61104;SDS011;46987;32.638;-115.438;2024-01-30T00:19:47;6.85;;;2.08;;
61104;SDS011;46987;32.638;-115.438;2024-01-30T00:22:14;12.40;;;3.33;;
61104;SDS011;46987;32.638;-115.438;2024-01-30T00:24:43;5.72;;;1.02;;
61104;SDS011;46987;32.638;-115.438;2024-01-30T00:27:10;7.40;;;1.20;;
61104;SDS011;46987;32.638;-115.438;2024-01-30T00:29:36;4.13;;;1.05;;
61104;SDS011;46987;32.638;-115.438;2024-01-30T00:32:04;4.20;;;1.00;;
61104;SDS011;46987;32.638;-115.438;2024-01-30T00:34:30;2.75;;;0.88;;
61104;SDS011;46987;32.638;-115.438;2024-01-30T00:36:57;7.45;;;1.38;;
61104;SDS011;46987;32.638;-115.438;2024-01-30T00:39:24;5.30;;;1.10;;
61104;SDS011;46987;32.638;-115.438;2024-01-30T00:41:53;5.63;;;1.50;;
61104;SDS011;46987;32.638;-115.438;2024-01-30T00:44:19;3.65;;;0.90;;
61104;SDS011;46987;32.638;-115.438;2024-01-30T00:46:46;5.47;;;1.50;;
61104;SDS011;46987;32.638;-115.438;2024-01-30T00:49:13;4.50;;;2.13;;
61104;SDS011;46987;32.638;-115.438;2024-01-30T00:51:40;7.25;;;1.80;;
61104;SDS011;46987;32.638;-115.438;2024-01-30T00:54:06;9.82;;;1.98;;
61104;SDS011;46987;32.638;-115.438;2024-01-30T00:56:34;8.10;;;1.42;;
61104;SDS011;46987;32.638;-115.438;2024-01-30T00:59:02;6.03;;;1.05;;
61104;SDS011;46987;32.638;-115.438;2024-01-30T01:01:29;6.55;;;1.15;;
61104;SDS011;46987;32.638;-115.438;2024-01-30T01:03:56;5.75;;;1.30;;
61104;SDS011;46987;32.638;-115.438;2024-01-30T01:06:24;8.05;;;1.88;;
61104;SDS011;46987;32.638;-115.438;2024-01-30T01:08:51;12.48;;;1.73;;
61104;SDS011;46987;32.638;-115.438;2024-01-30T01:11:18;10.45;;;2.10;;
61104;SDS011;46987;32.638;-115.438;2024-01-30T01:13:45;12.32;;;2.95;;
61104;SDS011;46987;32.638;-115.438;2024-01-30T01:16:14;12.20;;;2.40;;
61104;SDS011;46987;32.638;-115.438;2024-01-30T01:18:41;22.30;;;3.53;;
61104;SDS011;46987;32.638;-115.438;2024-01-30T01:21:07;14.90;;;3.17;;
61104;SDS011;46987;32.638;-115.438;2024-01-30T01:23:34;22.13;;;3.78;;
61104;SDS011;46987;32.638;-115.438;2024-01-30T01:26:01;25.95;;;4.10;;
61104;SDS011;46987;32.638;-115.438;2024-01-30T01:28:27;36.00;;;4.35;;
61104;SDS011;46987;32.638;-115.438;2024-01-30T01:30:54;32.95;;;6.20;;
61104;SDS011;46987;32.638;-115.438;2024-01-30T01:33:27;21.63;;;4.70;;
61104;SDS011;46987;32.638;-115.438;2024-01-30T01:35:53;25.48;;;3.92;;
61104;SDS011;46987;32.638;-115.438;2024-01-30T01:38:20;22.77;;;4.40;;
61104;SDS011;46987;32.638;-115.438;2024-01-30T01:40:47;24.73;;;4.03;;
61104;SDS011;46987;32.638;-115.438;2024-01-30T01:43:14;21.02;;;4.40;;
61104;SDS011;46987;32.638;-115.438;2024-01-30T01:45:40;22.08;;;3.97;;
61104;SDS011;46987;32.638;-115.438;2024-01-30T01:48:07;18.25;;;4.13;;
61104;SDS011;46987;32.638;-115.438;2024-01-30T01:50:36;22.05;;;3.60;;
61104;SDS011;46987;32.638;-115.438;2024-01-30T01:53:04;19.55;;;4.07;;
61104;SDS011;46987;32.638;-115.438;2024-01-30T01:55:31;29.77;;;4.85;;
61104;SDS011;46987;32.638;-115.438;2024-01-30T01:57:59;29.75;;;5.30;;
61104;SDS011;46987;32.638;-115.438;2024-01-30T02:00:26;25.80;;;4.40;;
61104;SDS011;46987;32.638;-115.438;2024-01-30T02:02:53;21.60;;;4.03;;
61104;SDS011;46987;32.638;-115.438;2024-01-30T02:05:21;17.80;;;4.40;;
61104;SDS011;46987;32.638;-115.438;2024-01-30T02:07:49;24.83;;;4.03;;
61104;SDS011;46987;32.638;-115.438;2024-01-30T02:10:16;22.15;;;5.13;;
61104;SDS011;46987;32.638;-115.438;2024-01-30T02:12:44;21.52;;;4.45;;
61104;SDS011;46987;32.638;-115.438;2024-01-30T02:15:13;20.52;;;4.38;;
61104;SDS011;46987;32.638;-115.438;2024-01-30T02:17:40;28.27;;;4.65;;
61104;SDS011;46987;32.638;-115.438;2024-01-30T02:20:07;16.60;;;4.70;;
61104;SDS011;46987;32.638;-115.438;2024-01-30T02:22:37;37.17;;;5.85;;
61104;SDS011;46987;32.638;-115.438;2024-01-30T02:25:04;34.63;;;5.60;;
61104;SDS011;46987;32.638;-115.438;2024-01-30T02:27:31;31.25;;;6.53;;
61104;SDS011;46987;32.638;-115.438;2024-01-30T02:29:57;38.88;;;7.25;;
61104;SDS011;46987;32.638;-115.438;2024-01-30T02:32:24;34.45;;;6.80;;
61104;SDS011;46987;32.638;-115.438;2024-01-30T02:34:52;31.50;;;6.47;;
61104;SDS011;46987;32.638;-115.438;2024-01-30T02:37:22;33.47;;;7.28;;
61104;SDS011;46987;32.638;-115.438;2024-01-30T02:39:51;41.03;;;10.02;;
61104;SDS011;46987;32.638;-115.438;2024-01-30T02:42:17;53.55;;;12.30;;
61104;SDS011;46987;32.638;-115.438;2024-01-30T02:44:44;45.63;;;10.68;;
61104;SDS011;46987;32.638;-115.438;2024-01-30T02:47:11;44.45;;;11.90;;
61104;SDS011;46987;32.638;-115.438;2024-01-30T02:49:38;48.00;;;11.65;;
61104;SDS011;46987;32.638;-115.438;2024-01-30T02:52:05;45.63;;;11.70;;
61104;SDS011;46987;32.638;-115.438;2024-01-30T02:54:31;50.05;;;12.63;;
61104;SDS011;46987;32.638;-115.438;2024-01-30T02:57:00;61.60;;;13.35;;
61104;SDS011;46987;32.638;-115.438;2024-01-30T02:59:27;48.97;;;13.40;;
61104;SDS011;46987;32.638;-115.438;2024-01-30T03:01:54;48.00;;;11.77;;
61104;SDS011;46987;32.638;-115.438;2024-01-30T03:04:20;51.67;;;12.90;;
61104;SDS011;46987;32.638;-115.438;2024-01-30T03:06:47;48.83;;;10.98;;
61104;SDS011;46987;32.638;-115.438;2024-01-30T03:09:15;50.58;;;11.45;;
61104;SDS011;46987;32.638;-115.438;2024-01-30T03:11:42;48.47;;;11.27;;
61104;SDS011;46987;32.638;-115.438;2024-01-30T03:14:10;47.97;;;11.02;;
61104;SDS011;46987;32.638;-115.438;2024-01-30T03:16:37;47.38;;;10.45;;
61104;SDS011;46987;32.638;-115.438;2024-01-30T03:19:05;52.17;;;11.50;;
61104;SDS011;46987;32.638;-115.438;2024-01-30T03:21:33;46.10;;;10.60;;
61104;SDS011;46987;32.638;-115.438;2024-01-30T03:24:00;54.33;;;12.15;;
61104;SDS011;46987;32.638;-115.438;2024-01-30T03:26:27;49.53;;;12.35;;
61104;SDS011;46987;32.638;-115.438;2024-01-30T03:28:54;48.75;;;11.48;;
61104;SDS011;46987;32.638;-115.438;2024-01-30T03:31:22;62.10;;;13.48;;
61104;SDS011;46987;32.638;-115.438;2024-01-30T03:33:50;53.35;;;12.35;;
61104;SDS011;46987;32.638;-115.438;2024-01-30T03:36:17;61.03;;;13.65;;
61104;SDS011;46987;32.638;-115.438;2024-01-30T03:38:44;74.32;;;16.13;;
61104;SDS011;46987;32.638;-115.438;2024-01-30T03:41:10;69.60;;;15.95;;
61104;SDS011;46987;32.638;-115.438;2024-01-30T03:43:37;64.53;;;13.95;;
61104;SDS011;46987;32.638;-115.438;2024-01-30T03:46:04;47.75;;;12.52;;
61104;SDS011;46987;32.638;-115.438;2024-01-30T03:48:33;45.28;;;10.68;;
61104;SDS011;46987;32.638;-115.438;2024-01-30T03:51:00;53.53;;;13.30;;
61104;SDS011;46987;32.638;-115.438;2024-01-30T03:53:26;48.38;;;12.82;;
61104;SDS011;46987;32.638;-115.438;2024-01-30T03:55:54;53.67;;;13.57;;
61104;SDS011;46987;32.638;-115.438;2024-01-30T03:58:21;52.92;;;12.13;;
61104;SDS011;46987;32.638;-115.438;2024-01-30T04:00:48;49.55;;;13.23;;
61104;SDS011;46987;32.638;-115.438;2024-01-30T04:03:14;64.70;;;12.30;;
61104;SDS011;46987;32.638;-115.438;2024-01-30T04:05:43;50.70;;;12.68;;
61104;SDS011;46987;32.638;-115.438;2024-01-30T04:08:10;41.95;;;12.45;;
61104;SDS011;46987;32.638;-115.438;2024-01-30T04:10:37;44.65;;;12.85;;
61104;SDS011;46987;32.638;-115.438;2024-01-30T04:13:03;53.75;;;14.25;;
61104;SDS011;46987;32.638;-115.438;2024-01-30T04:15:31;57.83;;;14.63;;
61104;SDS011;46987;32.638;-115.438;2024-01-30T04:17:58;47.63;;;13.60;;
61104;SDS011;46987;32.638;-115.438;2024-01-30T04:20:25;49.50;;;13.45;;
61104;SDS011;46987;32.638;-115.438;2024-01-30T04:22:54;53.95;;;15.77;;
61104;SDS011;46987;32.638;-115.438;2024-01-30T04:25:21;55.75;;;15.45;;
61104;SDS011;46987;32.638;-115.438;2024-01-30T04:27:48;65.05;;;15.45;;
61104;SDS011;46987;32.638;-115.438;2024-01-30T04:30:14;60.20;;;15.70;;
61104;SDS011;46987;32.638;-115.438;2024-01-30T04:32:41;56.85;;;15.50;;
61104;SDS011;46987;32.638;-115.438;2024-01-30T04:35:08;51.78;;;16.63;;
61104;SDS011;46987;32.638;-115.438;2024-01-30T04:37:35;67.93;;;19.63;;
61104;SDS011;46987;32.638;-115.438;2024-01-30T04:40:03;50.58;;;17.35;;
61104;SDS011;46987;32.638;-115.438;2024-01-30T04:42:31;46.05;;;16.58;;
61104;SDS011;46987;32.638;-115.438;2024-01-30T04:44:58;62.63;;;18.33;;
61104;SDS011;46987;32.638;-115.438;2024-01-30T04:47:25;49.58;;;18.60;;
61104;SDS011;46987;32.638;-115.438;2024-01-30T04:49:52;65.13;;;19.63;;
61104;SDS011;46987;32.638;-115.438;2024-01-30T04:52:18;48.95;;;19.02;;
61104;SDS011;46987;32.638;-115.438;2024-01-30T04:54:45;62.75;;;19.67;;
61104;SDS011;46987;32.638;-115.438;2024-01-30T04:57:13;53.45;;;18.13;;
61104;SDS011;46987;32.638;-115.438;2024-01-30T04:59:40;53.08;;;17.35;;
61104;SDS011;46987;32.638;-115.438;2024-01-30T05:02:07;63.45;;;17.38;;
61104;SDS011;46987;32.638;-115.438;2024-01-30T05:04:36;53.38;;;16.33;;
61104;SDS011;46987;32.638;-115.438;2024-01-30T05:07:02;51.15;;;15.25;;
61104;SDS011;46987;32.638;-115.438;2024-01-30T05:09:30;62.53;;;17.42;;
61104;SDS011;46987;32.638;-115.438;2024-01-30T05:11:56;54.28;;;16.73;;
61104;SDS011;46987;32.638;-115.438;2024-01-30T05:14:26;48.95;;;16.45;;
61104;SDS011;46987;32.638;-115.438;2024-01-30T05:16:52;59.72;;;17.33;;
61104;SDS011;46987;32.638;-115.438;2024-01-30T05:19:19;59.25;;;18.50;;
61104;SDS011;46987;32.638;-115.438;2024-01-30T05:21:47;54.95;;;17.77;;
61104;SDS011;46987;32.638;-115.438;2024-01-30T05:24:14;51.38;;;16.92;;
61104;SDS011;46987;32.638;-115.438;2024-01-30T05:26:41;52.90;;;17.92;;
61104;SDS011;46987;32.638;-115.438;2024-01-30T05:29:08;58.80;;;17.70;;
61104;SDS011;46987;32.638;-115.438;2024-01-30T05:31:36;58.33;;;17.85;;
61104;SDS011;46987;32.638;-115.438;2024-01-30T05:34:03;64.40;;;19.67;;
61104;SDS011;46987;32.638;-115.438;2024-01-30T05:36:30;72.82;;;19.13;;
61104;SDS011;46987;32.638;-115.438;2024-01-30T05:38:57;58.90;;;18.63;;
61104;SDS011;46987;32.638;-115.438;2024-01-30T05:41:24;69.97;;;20.10;;
61104;SDS011;46987;32.638;-115.438;2024-01-30T05:43:52;60.72;;;18.77;;
61104;SDS011;46987;32.638;-115.438;2024-01-30T05:46:19;61.60;;;20.05;;
61104;SDS011;46987;32.638;-115.438;2024-01-30T05:48:48;64.75;;;23.63;;
61104;SDS011;46987;32.638;-115.438;2024-01-30T05:51:14;80.18;;;22.98;;
61104;SDS011;46987;32.638;-115.438;2024-01-30T05:53:41;65.13;;;22.65;;
61104;SDS011;46987;32.638;-115.438;2024-01-30T05:56:08;56.35;;;20.77;;
61104;SDS011;46987;32.638;-115.438;2024-01-30T05:58:35;66.10;;;22.52;;
61104;SDS011;46987;32.638;-115.438;2024-01-30T06:01:03;71.75;;;21.92;;
61104;SDS011;46987;32.638;-115.438;2024-01-30T06:03:33;64.28;;;22.33;;
61104;SDS011;46987;32.638;-115.438;2024-01-30T06:06:02;68.47;;;20.52;;
61104;SDS011;46987;32.638;-115.438;2024-01-30T06:08:29;57.47;;;22.33;;
61104;SDS011;46987;32.638;-115.438;2024-01-30T06:10:56;71.25;;;20.85;;
61104;SDS011;46987;32.638;-115.438;2024-01-30T06:13:22;75.38;;;22.17;;
61104;SDS011;46987;32.638;-115.438;2024-01-30T06:15:49;78.00;;;21.80;;
61104;SDS011;46987;32.638;-115.438;2024-01-30T06:18:16;73.15;;;22.27;;
61104;SDS011;46987;32.638;-115.438;2024-01-30T06:20:43;58.63;;;21.80;;
61104;SDS011;46987;32.638;-115.438;2024-01-30T06:23:12;63.15;;;25.17;;
61104;SDS011;46987;32.638;-115.438;2024-01-30T06:25:40;67.38;;;22.98;;
61104;SDS011;46987;32.638;-115.438;2024-01-30T06:28:08;68.10;;;25.23;;
61104;SDS011;46987;32.638;-115.438;2024-01-30T06:30:34;76.63;;;26.83;;
61104;SDS011;46987;32.638;-115.438;2024-01-30T06:33:01;73.10;;;24.40;;
61104;SDS011;46987;32.638;-115.438;2024-01-30T06:35:28;72.60;;;24.25;;
61104;SDS011;46987;32.638;-115.438;2024-01-30T06:37:55;80.57;;;24.52;;
61104;SDS011;46987;32.638;-115.438;2024-01-30T06:40:23;81.85;;;25.02;;
61104;SDS011;46987;32.638;-115.438;2024-01-30T06:42:50;75.03;;;23.92;;
61104;SDS011;46987;32.638;-115.438;2024-01-30T06:45:17;71.32;;;22.30;;
61104;SDS011;46987;32.638;-115.438;2024-01-30T06:47:44;70.90;;;21.80;;
61104;SDS011;46987;32.638;-115.438;2024-01-30T06:50:10;57.28;;;22.35;;
61104;SDS011;46987;32.638;-115.438;2024-01-30T06:52:37;73.53;;;23.17;;
61104;SDS011;46987;32.638;-115.438;2024-01-30T06:55:04;77.75;;;24.65;;
61104;SDS011;46987;32.638;-115.438;2024-01-30T06:57:33;69.88;;;23.80;;
61104;SDS011;46987;32.638;-115.438;2024-01-30T06:59:59;74.10;;;23.58;;
61104;SDS011;46987;32.638;-115.438;2024-01-30T07:02:26;76.20;;;24.15;;
61104;SDS011;46987;32.638;-115.438;2024-01-30T07:04:53;69.13;;;23.98;;
61104;SDS011;46987;32.638;-115.438;2024-01-30T07:07:20;75.40;;;25.67;;
61104;SDS011;46987;32.638;-115.438;2024-01-30T07:09:47;76.30;;;25.38;;
61104;SDS011;46987;32.638;-115.438;2024-01-30T07:12:15;61.13;;;25.88;;
61104;SDS011;46987;32.638;-115.438;2024-01-30T07:14:44;73.32;;;25.15;;
61104;SDS011;46987;32.638;-115.438;2024-01-30T07:17:11;77.88;;;26.33;;
61104;SDS011;46987;32.638;-115.438;2024-01-30T07:19:38;96.90;;;27.25;;
61104;SDS011;46987;32.638;-115.438;2024-01-30T07:22:04;70.82;;;27.40;;
61104;SDS011;46987;32.638;-115.438;2024-01-30T07:24:31;73.10;;;26.73;;
61104;SDS011;46987;32.638;-115.438;2024-01-30T07:26:58;67.47;;;25.73;;
61104;SDS011;46987;32.638;-115.438;2024-01-30T07:29:24;70.88;;;27.45;;
61104;SDS011;46987;32.638;-115.438;2024-01-30T07:31:53;77.60;;;27.23;;
61104;SDS011;46987;32.638;-115.438;2024-01-30T07:34:20;74.32;;;27.13;;
61104;SDS011;46987;32.638;-115.438;2024-01-30T07:36:47;70.35;;;27.40;;
61104;SDS011;46987;32.638;-115.438;2024-01-30T07:39:14;75.40;;;28.40;;
61104;SDS011;46987;32.638;-115.438;2024-01-30T07:41:41;70.85;;;28.15;;
61104;SDS011;46987;32.638;-115.438;2024-01-30T07:44:11;71.32;;;29.88;;
61104;SDS011;46987;32.638;-115.438;2024-01-30T07:46:38;72.75;;;28.42;;
61104;SDS011;46987;32.638;-115.438;2024-01-30T07:49:07;68.53;;;28.92;;
61104;SDS011;46987;32.638;-115.438;2024-01-30T07:51:34;65.22;;;29.50;;
61104;SDS011;46987;32.638;-115.438;2024-01-30T07:54:00;76.50;;;27.35;;
61104;SDS011;46987;32.638;-115.438;2024-01-30T07:56:27;68.05;;;28.33;;
61104;SDS011;46987;32.638;-115.438;2024-01-30T07:58:54;76.68;;;28.80;;
61104;SDS011;46987;32.638;-115.438;2024-01-30T08:01:21;79.10;;;28.98;;
61104;SDS011;46987;32.638;-115.438;2024-01-30T08:03:47;89.97;;;29.83;;
61104;SDS011;46987;32.638;-115.438;2024-01-30T08:06:16;75.35;;;29.38;;
61104;SDS011;46987;32.638;-115.438;2024-01-30T08:08:42;68.72;;;29.23;;
61104;SDS011;46987;32.638;-115.438;2024-01-30T08:11:09;70.75;;;30.90;;
61104;SDS011;46987;32.638;-115.438;2024-01-30T08:13:36;73.05;;;31.58;;
61104;SDS011;46987;32.638;-115.438;2024-01-30T08:16:03;70.65;;;30.67;;
61104;SDS011;46987;32.638;-115.438;2024-01-30T08:18:30;72.85;;;32.42;;
61104;SDS011;46987;32.638;-115.438;2024-01-30T08:20:57;86.20;;;35.50;;
61104;SDS011;46987;32.638;-115.438;2024-01-30T08:23:26;86.88;;;35.83;;
61104;SDS011;46987;32.638;-115.438;2024-01-30T08:25:52;86.90;;;35.65;;
61104;SDS011;46987;32.638;-115.438;2024-01-30T08:28:19;84.35;;;35.05;;
61104;SDS011;46987;32.638;-115.438;2024-01-30T08:30:46;88.93;;;36.60;;
61104;SDS011;46987;32.638;-115.438;2024-01-30T08:33:13;87.22;;;34.75;;
61104;SDS011;46987;32.638;-115.438;2024-01-30T08:35:40;101.78;;;34.40;;
61104;SDS011;46987;32.638;-115.438;2024-01-30T08:38:07;72.82;;;32.05;;
61104;SDS011;46987;32.638;-115.438;2024-01-30T08:40:35;87.97;;;34.97;;
61104;SDS011;46987;32.638;-115.438;2024-01-30T08:43:02;78.15;;;33.75;;
61104;SDS011;46987;32.638;-115.438;2024-01-30T08:45:30;75.97;;;31.88;;
61104;SDS011;46987;32.638;-115.438;2024-01-30T08:47:56;80.88;;;31.92;;
61104;SDS011;46987;32.638;-115.438;2024-01-30T08:50:23;76.18;;;31.13;;
61104;SDS011;46987;32.638;-115.438;2024-01-30T08:52:50;66.32;;;30.17;;
61104;SDS011;46987;32.638;-115.438;2024-01-30T08:55:17;70.28;;;28.52;;
61104;SDS011;46987;32.638;-115.438;2024-01-30T08:57:46;67.72;;;28.95;;
61104;SDS011;46987;32.638;-115.438;2024-01-30T09:00:13;63.20;;;27.83;;
61104;SDS011;46987;32.638;-115.438;2024-01-30T09:02:40;56.72;;;24.25;;
61104;SDS011;46987;32.638;-115.438;2024-01-30T09:05:07;46.90;;;21.10;;
61104;SDS011;46987;32.638;-115.438;2024-01-30T09:07:33;46.80;;;19.77;;
61104;SDS011;46987;32.638;-115.438;2024-01-30T09:10:00;39.72;;;14.50;;
61104;SDS011;46987;32.638;-115.438;2024-01-30T09:12:27;38.10;;;16.10;;
61104;SDS011;46987;32.638;-115.438;2024-01-30T09:14:55;31.02;;;14.65;;
61104;SDS011;46987;32.638;-115.438;2024-01-30T09:17:22;40.03;;;15.73;;
61104;SDS011;46987;32.638;-115.438;2024-01-30T09:19:49;36.28;;;14.32;;
61104;SDS011;46987;32.638;-115.438;2024-01-30T09:22:16;34.65;;;12.18;;
61104;SDS011;46987;32.638;-115.438;2024-01-30T09:24:42;27.52;;;12.35;;
61104;SDS011;46987;32.638;-115.438;2024-01-30T09:27:09;24.20;;;11.88;;
61104;SDS011;46987;32.638;-115.438;2024-01-30T09:29:36;27.15;;;12.00;;
61104;SDS011;46987;32.638;-115.438;2024-01-30T09:32:06;27.33;;;10.85;;
61104;SDS011;46987;32.638;-115.438;2024-01-30T09:34:33;23.63;;;10.35;;
61104;SDS011;46987;32.638;-115.438;2024-01-30T09:36:59;27.52;;;10.13;;
61104;SDS011;46987;32.638;-115.438;2024-01-30T09:39:26;24.48;;;10.50;;
61104;SDS011;46987;32.638;-115.438;2024-01-30T09:41:55;20.38;;;9.35;;
61104;SDS011;46987;32.638;-115.438;2024-01-30T09:44:26;21.65;;;8.95;;
61104;SDS011;46987;32.638;-115.438;2024-01-30T09:46:54;20.00;;;7.75;;
61104;SDS011;46987;32.638;-115.438;2024-01-30T09:49:23;9.18;;;4.22;;
61104;SDS011;46987;32.638;-115.438;2024-01-30T09:51:50;5.95;;;3.47;;
61104;SDS011;46987;32.638;-115.438;2024-01-30T09:54:18;9.80;;;2.78;;
61104;SDS011;46987;32.638;-115.438;2024-01-30T09:56:46;7.35;;;3.70;;
61104;SDS011;46987;32.638;-115.438;2024-01-30T09:59:13;7.25;;;2.95;;
61104;SDS011;46987;32.638;-115.438;2024-01-30T10:01:40;6.00;;;3.03;;
61104;SDS011;46987;32.638;-115.438;2024-01-30T10:04:07;7.35;;;2.95;;
61104;SDS011;46987;32.638;-115.438;2024-01-30T10:06:36;6.70;;;2.38;;
61104;SDS011;46987;32.638;-115.438;2024-01-30T10:09:03;5.80;;;2.90;;
61104;SDS011;46987;32.638;-115.438;2024-01-30T10:11:30;11.63;;;3.50;;
61104;SDS011;46987;32.638;-115.438;2024-01-30T10:13:57;9.23;;;3.55;;
61104;SDS011;46987;32.638;-115.438;2024-01-30T10:16:24;9.48;;;3.35;;
61104;SDS011;46987;32.638;-115.438;2024-01-30T10:18:51;8.98;;;3.78;;
61104;SDS011;46987;32.638;-115.438;2024-01-30T10:21:17;6.15;;;3.05;;
61104;SDS011;46987;32.638;-115.438;2024-01-30T10:23:46;6.60;;;3.38;;
61104;SDS011;46987;32.638;-115.438;2024-01-30T10:26:13;6.82;;;3.63;;
61104;SDS011;46987;32.638;-115.438;2024-01-30T10:28:40;7.05;;;3.22;;
61104;SDS011;46987;32.638;-115.438;2024-01-30T10:31:06;8.27;;;3.78;;
61104;SDS011;46987;32.638;-115.438;2024-01-30T10:33:33;9.75;;;3.83;;
61104;SDS011;46987;32.638;-115.438;2024-01-30T10:36:00;10.88;;;4.00;;
61104;SDS011;46987;32.638;-115.438;2024-01-30T10:38:28;8.43;;;4.00;;
61104;SDS011;46987;32.638;-115.438;2024-01-30T10:40:57;8.23;;;4.07;;
61104;SDS011;46987;32.638;-115.438;2024-01-30T10:43:24;12.00;;;4.47;;
61104;SDS011;46987;32.638;-115.438;2024-01-30T10:45:54;10.43;;;3.85;;
61104;SDS011;46987;32.638;-115.438;2024-01-30T10:48:22;11.82;;;3.88;;
61104;SDS011;46987;32.638;-115.438;2024-01-30T10:50:51;8.85;;;3.72;;
61104;SDS011;46987;32.638;-115.438;2024-01-30T10:53:20;6.88;;;3.65;;
61104;SDS011;46987;32.638;-115.438;2024-01-30T10:55:48;8.02;;;3.70;;
61104;SDS011;46987;32.638;-115.438;2024-01-30T10:58:16;6.53;;;3.55;;
61104;SDS011;46987;32.638;-115.438;2024-01-30T11:00:43;9.15;;;4.13;;
61104;SDS011;46987;32.638;-115.438;2024-01-30T11:03:11;9.40;;;3.33;;
61104;SDS011;46987;32.638;-115.438;2024-01-30T11:05:40;9.75;;;3.42;;
61104;SDS011;46987;32.638;-115.438;2024-01-30T11:08:10;7.70;;;3.20;;
61104;SDS011;46987;32.638;-115.438;2024-01-30T11:10:44;6.07;;;2.95;;
61104;SDS011;46987;32.638;-115.438;2024-01-30T11:13:12;7.57;;;2.85;;
61104;SDS011;46987;32.638;-115.438;2024-01-30T11:15:41;5.53;;;1.95;;
61104;SDS011;46987;32.638;-115.438;2024-01-30T11:18:08;3.35;;;1.67;;
61104;SDS011;46987;32.638;-115.438;2024-01-30T11:20:35;4.88;;;2.17;;
61104;SDS011;46987;32.638;-115.438;2024-01-30T11:23:11;3.42;;;1.83;;
61104;SDS011;46987;32.638;-115.438;2024-01-30T11:25:38;4.47;;;1.58;;
61104;SDS011;46987;32.638;-115.438;2024-01-30T11:28:05;6.80;;;2.25;;
61104;SDS011;46987;32.638;-115.438;2024-01-30T11:30:32;4.70;;;1.40;;
61104;SDS011;46987;32.638;-115.438;2024-01-30T11:33:02;4.32;;;1.40;;
61104;SDS011;46987;32.638;-115.438;2024-01-30T11:35:33;5.97;;;1.73;;
61104;SDS011;46987;32.638;-115.438;2024-01-30T11:38:00;4.03;;;1.65;;
61104;SDS011;46987;32.638;-115.438;2024-01-30T11:40:27;4.30;;;1.55;;
61104;SDS011;46987;32.638;-115.438;2024-01-30T11:42:54;4.28;;;1.58;;
61104;SDS011;46987;32.638;-115.438;2024-01-30T11:45:22;3.38;;;1.13;;
61104;SDS011;46987;32.638;-115.438;2024-01-30T11:47:48;3.42;;;1.45;;
61104;SDS011;46987;32.638;-115.438;2024-01-30T11:50:17;3.28;;;1.17;;
61104;SDS011;46987;32.638;-115.438;2024-01-30T11:52:44;4.32;;;1.80;;
61104;SDS011;46987;32.638;-115.438;2024-01-30T11:55:11;3.58;;;1.23;;
61104;SDS011;46987;32.638;-115.438;2024-01-30T11:57:39;3.80;;;1.30;;
61104;SDS011;46987;32.638;-115.438;2024-01-30T12:00:13;3.05;;;1.00;;
61104;SDS011;46987;32.638;-115.438;2024-01-30T12:02:40;5.53;;;1.30;;
61104;SDS011;46987;32.638;-115.438;2024-01-30T12:05:07;12.05;;;1.70;;
61104;SDS011;46987;32.638;-115.438;2024-01-30T12:07:36;2.80;;;1.10;;
61104;SDS011;46987;32.638;-115.438;2024-01-30T12:10:03;2.95;;;1.20;;
61104;SDS011;46987;32.638;-115.438;2024-01-30T12:12:31;5.13;;;1.25;;
61104;SDS011;46987;32.638;-115.438;2024-01-30T12:14:58;4.53;;;1.20;;
61104;SDS011;46987;32.638;-115.438;2024-01-30T12:17:28;5.30;;;1.42;;
61104;SDS011;46987;32.638;-115.438;2024-01-30T12:20:02;4.53;;;1.40;;
61104;SDS011;46987;32.638;-115.438;2024-01-30T12:22:29;4.50;;;1.35;;
61104;SDS011;46987;32.638;-115.438;2024-01-30T12:24:59;4.32;;;1.60;;
61104;SDS011;46987;32.638;-115.438;2024-01-30T12:27:26;7.45;;;2.03;;
61104;SDS011;46987;32.638;-115.438;2024-01-30T12:29:56;6.05;;;2.15;;
61104;SDS011;46987;32.638;-115.438;2024-01-30T12:32:24;4.65;;;1.83;;
61104;SDS011;46987;32.638;-115.438;2024-01-30T12:34:55;9.38;;;1.73;;
61104;SDS011;46987;32.638;-115.438;2024-01-30T12:37:24;4.00;;;1.70;;
61104;SDS011;46987;32.638;-115.438;2024-01-30T12:39:51;5.00;;;2.22;;
61104;SDS011;46987;32.638;-115.438;2024-01-30T12:42:21;8.23;;;2.67;;
61104;SDS011;46987;32.638;-115.438;2024-01-30T12:44:48;12.60;;;6.95;;
61104;SDS011;46987;32.638;-115.438;2024-01-30T12:47:15;19.63;;;10.20;;
61104;SDS011;46987;32.638;-115.438;2024-01-30T12:49:42;19.65;;;9.85;;
61104;SDS011;46987;32.638;-115.438;2024-01-30T12:52:10;20.60;;;10.15;;
61104;SDS011;46987;32.638;-115.438;2024-01-30T12:54:37;19.80;;;9.05;;
61104;SDS011;46987;32.638;-115.438;2024-01-30T12:57:04;17.88;;;8.95;;
61104;SDS011;46987;32.638;-115.438;2024-01-30T12:59:33;21.80;;;10.30;;
61104;SDS011;46987;32.638;-115.438;2024-01-30T13:02:00;17.40;;;8.27;;
61104;SDS011;46987;32.638;-115.438;2024-01-30T13:04:28;15.68;;;9.20;;
61104;SDS011;46987;32.638;-115.438;2024-01-30T13:06:55;15.43;;;8.10;;
61104;SDS011;46987;32.638;-115.438;2024-01-30T13:09:22;14.13;;;7.20;;
61104;SDS011;46987;32.638;-115.438;2024-01-30T13:11:49;14.52;;;6.15;;
61104;SDS011;46987;32.638;-115.438;2024-01-30T13:14:17;13.88;;;6.43;;
61104;SDS011;46987;32.638;-115.438;2024-01-30T13:16:45;15.80;;;6.40;;
61104;SDS011;46987;32.638;-115.438;2024-01-30T13:19:12;13.70;;;6.65;;
61104;SDS011;46987;32.638;-115.438;2024-01-30T13:21:39;13.63;;;7.13;;
61104;SDS011;46987;32.638;-115.438;2024-01-30T13:24:06;14.00;;;5.85;;
61104;SDS011;46987;32.638;-115.438;2024-01-30T13:26:33;15.43;;;6.50;;
61104;SDS011;46987;32.638;-115.438;2024-01-30T13:28:59;16.23;;;7.18;;
61104;SDS011;46987;32.638;-115.438;2024-01-30T13:31:26;16.65;;;8.25;;
61104;SDS011;46987;32.638;-115.438;2024-01-30T13:33:55;20.45;;;8.88;;
61104;SDS011;46987;32.638;-115.438;2024-01-30T13:36:22;19.98;;;9.02;;
61104;SDS011;46987;32.638;-115.438;2024-01-30T13:38:49;18.00;;;8.73;;
61104;SDS011;46987;32.638;-115.438;2024-01-30T13:41:16;15.63;;;8.40;;
61104;SDS011;46987;32.638;-115.438;2024-01-30T13:43:43;15.73;;;8.98;;
61104;SDS011;46987;32.638;-115.438;2024-01-30T13:46:10;18.10;;;9.35;;
61104;SDS011;46987;32.638;-115.438;2024-01-30T13:48:37;20.23;;;9.73;;
61104;SDS011;46987;32.638;-115.438;2024-01-30T13:51:06;24.40;;;10.85;;
61104;SDS011;46987;32.638;-115.438;2024-01-30T13:53:32;21.38;;;10.05;;